Aviation Digital Data Service (ADDS)

Output produced by METARs form (2039 UTC 16 December 2017)
found at http://www.aviationweather.gov/adds/metars/
 
KIPT 161954Z 27010G17KT 10SM OVC038 04/M03 A2997 RMK AO2 SLP154 T00441028
KIPT 161854Z 26010KT 10SM OVC041 04/M03 A2994 RMK AO2 SLP146 T00441028
KIPT 161754Z COR 000/00 10SM OVC043 03/M03 A2994 RMK AO2 SLP145 T00331033 10033 21072 56021
KIPT 161654Z 13003KT 9SM OVC039 00/M04 A2996 RMK AO2 SLP153 T00001044
KIPT 161554Z 00000KT 7SM OVC035 M02/M05 A2998 RMK AO2 SLP160 T10171050
KIPT 161454Z 00000KT 8SM OVC034 M03/M07 A3000 RMK AO2 SLP168 T10331072 51014
KIPT 161354Z 00000KT 9SM OVC033 M04/M08 A3000 RMK AO2 SLP166 T10441078
KIPT 161254Z VRB03KT 8SM OVC037 M06/M09 A2998 RMK AO2 SLP161 T10611094
KIPT 161154Z 10004KT 9SM OVC037 M07/M11 A2996 RMK AO2 SLP154 I6000 T10721111 11072 21106 53001
KIPT 161054Z AUTO 00000KT 8SM SCT040 OVC065 M08/M11 A2996 RMK AO2 SLP153 T10781111
KIPT 160954Z AUTO 04003KT 7SM BKN040 OVC065 M09/M12 A2995 RMK AO2 SLP150 T10891122
KIPT 160854Z AUTO 00000KT 7SM FEW065 M10/M13 A2996 RMK AO2 SLP153 I1000 I3000 T11001133 51015
KIPT 160754Z AUTO 00000KT 7SM FEW050 M09/M12 A2995 RMK AO2 SLP152 I1000 T10941122
KIPT 160717Z AUTO 36003KT 7SM FEW003 BKN070 M09/M13 A2993 RMK AO2 T10941128
KIPT 160654Z AUTO 01004KT 7SM FEW060 M09/M12 A2993 RMK AO2 SLP143 I1000 T10941122
KIPT 160554Z AUTO 00000KT 6SM BR FEW003 M09/M12 A2991 RMK AO2 SLP138 I1000 I6000 T10941117 11050 21094 50006
KIPT 160454Z AUTO 00000KT 6SM BR BKN075 M08/M11 A2991 RMK AO2 SLP139 I1000 T10831106 410391111
KIPT 160354Z AUTO 00000KT 7SM CLR M08/M10 A2990 RMK AO2 SLP135 T10831100
KIPT 160254Z 00000KT 8SM BKN036 M06/M09 A2990 RMK AO2 SLP132 T10611094 53004
KIPT 160154Z 00000KT 10SM SCT044 M06/M09 A2989 RMK AO2 SLP129 T10611089
KIPT 160054Z 00000KT 9SM OVC065 M05/M08 A2989 RMK AO2 SLP130 T10501083
KIPT 152354Z 00000KT 10SM BKN070 OVC085 M06/M09 A2988 RMK AO2 SLP128 T10561089 11039 21061 53003
KIPT 152254Z 09003KT 10SM BKN047 OVC085 M06/M09 A2987 RMK AO2 SLP125 T10561089
KIPT 152154Z 20005KT 10SM FEW034 BKN100 M04/M09 A2987 RMK AO2 SLP123 T10441094
KIPT 152054Z 19003KT 10SM SCT044 M04/M09 A2988 RMK AO2 SLP126 T10391089 56020
KIPT 151954Z 09004KT 10SM BKN034 OVC055 M04/M09 A2988 RMK AO2 SLP128 T10391094
KIPT 151854Z 08006KT 10SM FEW037 OVC055 M04/M11 A2990 RMK AO2 SLP134 T10391106
KIPT 151754Z 00000KT 10SM OVC050 M05/M11 A2994 RMK AO2 SLP146 T10501111 11050 21100 58038
KIPT 151654Z 14003KT 10SM OVC039 M07/M12 A2998 RMK AO2 SLP160 T10671122
KIPT 151554Z 11003KT 10SM OVC038 M07/M13 A3002 RMK AO2 SLP174 T10721128
KIPT 151454Z 00000KT 10SM OVC038 M08/M12 A3005 RMK AO2 SLP184 T10831122 58007
KIPT 151354Z 00000KT 10SM SCT110 M09/M13 A3005 RMK AO2 SLP186 T10891128
KIPT 151254Z 00000KT 10SM CLR M09/M13 A3007 RMK AO2 SLP192 T10941133
KIPT 151154Z 00000KT 10SM CLR M10/M14 A3007 RMK AO2 SLP192 T11001139 11094 21106 55001
KIPT 151054Z AUTO 00000KT 10SM CLR M10/M13 A3006 RMK AO2 SLP188 T11001133
KIPT 150954Z AUTO 27003KT 10SM CLR M11/M14 A3006 RMK AO2 SLP187 T11061139
KIPT 150854Z AUTO 00000KT 10SM CLR M10/M14 A3007 RMK AO2 SLP192 T11001139 58005